createdAt,value
2023-04-03T00:00:50.787Z,100439.47
2023-04-03T00:03:53.232Z,100439.06
2023-04-03T00:06:55.556Z,100435.69
2023-04-03T00:09:57.754Z,100438.63
2023-04-03T00:12:59.999Z,100437.13
2023-04-03T00:16:04.390Z,100441.09
2023-04-03T00:19:06.819Z,100431.94
2023-04-03T00:22:08.854Z,100430.50
2023-04-03T00:25:12.880Z,100435.88
2023-04-03T00:28:15.055Z,100434.88
2023-04-03T00:31:17.676Z,100444.25
2023-04-03T00:34:21.019Z,100444.22
2023-04-03T00:37:24.874Z,100447.78
2023-04-03T00:40:28.980Z,100442.13
2023-04-03T00:43:31.913Z,100453.16
2023-04-03T00:46:34.109Z,100452.78
2023-04-03T00:49:38.410Z,100451.50
2023-04-03T00:52:41.151Z,100455.28
2023-04-03T00:55:44.531Z,100466.91
2023-04-03T00:59:05.262Z,100460.44
2023-04-03T01:02:08.138Z,100460.63
2023-04-03T01:05:11.083Z,100462.69
2023-04-03T01:08:13.440Z,100465.03
2023-04-03T01:11:19.050Z,100466.88
2023-04-03T01:14:23.159Z,100461.50
2023-04-03T01:18:01.701Z,100470.22
2023-04-03T01:21:37.161Z,100471.09
2023-04-03T01:24:42.430Z,100470.88
2023-04-03T01:27:46.371Z,100469.16
2023-04-03T01:31:09.743Z,100472.50
2023-04-03T01:34:12.096Z,100481.69
2023-04-03T01:37:14.309Z,100478.53
2023-04-03T01:40:16.486Z,100477.91
2023-04-03T01:43:19.285Z,100478.09
2023-04-03T01:46:23.285Z,100483.75
2023-04-03T01:49:25.661Z,100481.25
2023-04-03T01:52:27.773Z,100492.25
2023-04-03T01:55:29.916Z,100492.00
2023-04-03T01:58:33.182Z,100491.41
2023-04-03T02:01:36.630Z,100500.22
2023-04-03T02:04:42.188Z,100502.19
2023-04-03T02:07:44.452Z,100494.13
2023-04-03T02:10:49.560Z,100508.31
2023-04-03T02:13:51.765Z,100505.00
2023-04-03T02:16:54.328Z,100506.03
2023-04-03T02:19:58.436Z,100513.72
2023-04-03T02:23:01.299Z,100509.53
2023-04-03T02:26:08.819Z,100507.22
2023-04-03T02:29:10.935Z,100524.13
2023-04-03T02:32:13.193Z,100499.88
2023-04-03T02:35:15.932Z,100510.97
2023-04-03T02:38:18.618Z,100513.69
2023-04-03T02:41:22.240Z,100514.72
2023-04-03T02:44:26.637Z,100518.22
2023-04-03T02:47:29.492Z,100517.19
2023-04-03T02:50:31.774Z,100522.88
2023-04-03T02:53:34.072Z,100534.72
2023-04-03T02:56:42.845Z,100534.53
2023-04-03T02:59:45.434Z,100532.88
2023-04-03T03:02:50.591Z,100517.56
2023-04-03T03:06:03.031Z,100532.88
2023-04-03T03:09:06.898Z,100539.06
2023-04-03T03:12:09.022Z,100552.56
2023-04-03T03:15:11.615Z,100542.13
2023-04-03T03:18:13.908Z,100533.81
2023-04-03T03:21:16.699Z,100536.88
2023-04-03T03:24:18.869Z,100545.09
2023-04-03T03:27:21.117Z,100549.19
2023-04-03T03:30:23.330Z,100547.16
2023-04-03T03:33:26.486Z,100550.50
2023-04-03T03:36:28.566Z,100547.59
2023-04-03T03:39:30.857Z,100557.44
2023-04-03T03:42:33.226Z,100553.25
2023-04-03T03:45:35.818Z,100549.06
2023-04-03T03:48:38.253Z,100553.00
2023-04-03T03:51:41.243Z,100557.19
2023-04-03T03:54:43.876Z,100558.81
2023-04-03T03:57:46.790Z,100565.50
2023-04-03T04:00:49.051Z,100563.25
2023-04-03T04:03:51.425Z,100569.16
2023-04-03T04:06:58.188Z,100568.09
2023-04-03T04:10:00.528Z,100578.56
2023-04-03T04:13:02.964Z,100575.41
2023-04-03T04:16:05.581Z,100575.06
2023-04-03T04:19:09.124Z,100577.16
2023-04-03T04:22:13.101Z,100570.13
2023-04-03T04:25:15.662Z,100588.63
2023-04-03T04:28:18.784Z,100593.38
2023-04-03T04:31:23.498Z,100587.38
2023-04-03T04:34:26.113Z,100597.78
2023-04-03T04:37:28.473Z,100596.50
2023-04-03T04:40:33.722Z,100603.94
2023-04-03T04:43:36.197Z,100603.28
2023-04-03T04:46:38.604Z,100602.66
2023-04-03T04:49:42.553Z,100614.97
2023-04-03T04:52:46.593Z,100613.22
2023-04-03T04:55:49.783Z,100613.25
2023-04-03T04:58:52.479Z,100634.47
2023-04-03T05:01:58.803Z,100625.50
2023-04-03T05:11:00.575Z,100626.41
2023-04-03T05:49:06.474Z,100639.16
2023-04-03T05:52:33.000Z,100647.69
2023-04-03T05:55:35.794Z,100636.56
2023-04-03T05:58:40.607Z,100638.88
2023-04-03T06:01:42.895Z,100639.78
2023-04-03T06:08:55.661Z,100640.28
2023-04-03T06:12:00.003Z,100646.25
2023-04-03T06:15:04.810Z,100661.47
2023-04-03T06:18:08.835Z,100661.16
2023-04-03T06:21:11.424Z,100656.34
2023-04-03T06:24:17.399Z,100656.47
2023-04-03T06:27:20.234Z,100657.00
2023-04-03T06:30:23.020Z,100672.44
2023-04-03T06:33:25.198Z,100665.53
2023-04-03T06:36:29.909Z,100664.19
2023-04-03T06:42:36.492Z,100670.78
2023-04-03T06:45:46.552Z,100665.72
2023-04-03T06:48:50.067Z,100672.91
2023-04-03T06:51:53.149Z,100673.84
2023-04-03T06:54:58.549Z,100679.19
2023-04-03T06:58:01.781Z,100679.06
2023-04-03T07:01:04.540Z,100676.03
2023-04-03T07:04:07.113Z,100682.38
2023-04-03T07:07:09.525Z,100690.50
2023-04-03T07:10:12.482Z,100691.66
2023-04-03T07:13:15.905Z,100689.47
2023-04-03T07:16:18.273Z,100697.22
2023-04-03T07:19:22.572Z,100705.47
2023-04-03T07:22:25.652Z,100715.94
2023-04-03T07:25:27.817Z,100706.22
2023-04-03T07:28:33.099Z,100724.84
2023-04-03T07:31:35.906Z,100720.66
2023-04-03T07:34:39.764Z,100717.81
2023-04-03T07:37:42.284Z,100733.19
2023-04-03T07:40:49.292Z,100727.63
2023-04-03T07:43:51.403Z,100737.47
2023-04-03T07:46:53.619Z,100743.78
2023-04-03T07:49:55.865Z,100743.34
2023-04-03T07:52:59.061Z,100751.50
2023-04-03T07:56:03.946Z,100748.59
2023-04-03T07:59:06.324Z,100760.28
2023-04-03T08:02:11.127Z,100748.38
2023-04-03T08:05:14.639Z,100760.69
2023-04-03T08:08:21.472Z,100762.38
2023-04-03T08:11:24.910Z,100765.50
2023-04-03T08:14:28.197Z,100765.69
2023-04-03T08:17:31.896Z,100770.88
2023-04-03T08:20:35.429Z,100776.69
2023-04-03T08:23:38.380Z,100769.13
2023-04-03T08:26:43.801Z,100774.03
2023-04-03T08:29:48.995Z,100779.47
2023-04-03T08:32:52.000Z,100788.72
2023-04-03T08:35:54.157Z,100791.66
2023-04-03T08:38:59.016Z,100803.63
2023-04-03T08:42:10.593Z,100802.75
2023-04-03T08:45:39.327Z,100811.34
2023-04-03T08:48:44.061Z,100825.81
2023-04-03T08:51:59.828Z,100832.28
2023-04-03T08:55:05.852Z,100844.19
2023-04-03T08:58:17.701Z,100845.66
2023-04-03T09:01:22.891Z,100842.13
2023-04-03T09:04:28.831Z,100841.28
2023-04-03T09:07:43.364Z,100856.13
2023-04-03T09:10:46.223Z,100863.31
2023-04-03T09:13:56.349Z,100853.72
2023-04-03T09:17:03.210Z,100857.88
2023-04-03T09:20:21.267Z,100856.31
2023-04-03T09:23:51.747Z,100857.47
2023-04-03T09:27:00.870Z,100866.19
2023-04-03T09:30:04.164Z,100865.16
2023-04-03T09:33:08.211Z,100861.81
2023-04-03T09:36:10.505Z,100874.97
2023-04-03T09:39:17.132Z,100875.25
2023-04-03T09:42:33.690Z,100879.25
2023-04-03T09:45:38.192Z,100878.75
2023-04-03T09:48:55.037Z,100871.72
2023-04-03T09:52:28.067Z,100871.78
2023-04-03T09:55:31.297Z,100878.50
2023-04-03T09:58:49.643Z,100885.25
2023-04-03T10:02:26.617Z,100893.22
2023-04-03T10:05:42.915Z,100890.13
2023-04-03T10:09:05.526Z,100897.03
2023-04-03T10:12:10.337Z,100883.22
2023-04-03T10:15:28.720Z,100894.31
2023-04-03T10:18:48.924Z,100903.75
2023-04-03T10:22:01.884Z,100901.44
2023-04-03T10:25:22.294Z,100915.47
2023-04-03T10:28:42.516Z,100921.31
2023-04-03T10:31:53.445Z,100928.59
2023-04-03T10:35:34.780Z,100924.81
2023-04-03T10:38:58.850Z,100926.00
2023-04-03T10:42:28.790Z,100928.16
2023-04-03T10:46:03.433Z,100929.59
2023-04-03T10:49:30.450Z,100937.94
2023-04-03T10:52:55.103Z,100935.25
2023-04-03T10:56:28.093Z,100948.47
2023-04-03T10:59:52.170Z,100950.47
2023-04-03T11:02:58.038Z,100939.97
2023-04-03T11:06:08.850Z,100947.44
2023-04-03T11:09:26.569Z,100946.78
2023-04-03T11:12:51.784Z,100959.75
2023-04-03T11:15:55.637Z,100958.41
2023-04-03T11:19:01.842Z,100955.28
2023-04-03T11:22:25.348Z,100947.31
2023-04-03T11:25:31.159Z,100950.97
2023-04-03T11:28:33.520Z,100960.00
2023-04-03T11:31:56.783Z,100956.69
2023-04-03T11:35:02.715Z,100954.63
2023-04-03T11:38:09.512Z,100959.03
2023-04-03T11:41:14.468Z,100970.16
2023-04-03T11:44:39.503Z,100961.16
2023-04-03T11:47:55.169Z,100966.81
2023-04-03T11:50:58.808Z,100966.56
2023-04-03T11:54:46.345Z,100965.94
2023-04-03T11:58:00.608Z,100962.78
2023-04-03T12:01:03.827Z,100973.00
2023-04-03T12:04:15.667Z,100964.84
2023-04-03T12:07:21.088Z,100963.75
2023-04-03T12:10:31.566Z,100959.09
2023-04-03T12:13:36.755Z,100956.59
2023-04-03T12:16:39.321Z,100933.38
2023-04-03T12:19:50.321Z,100932.75
2023-04-03T12:23:27.717Z,100934.16
2023-04-03T12:27:08.131Z,100934.50
2023-04-03T12:30:33.398Z,100938.25
2023-04-03T12:33:45.206Z,100925.94
2023-04-03T12:37:08.802Z,100943.69
2023-04-03T12:40:37.276Z,100937.22
2023-04-03T12:44:00.733Z,100936.19
2023-04-03T12:47:24.474Z,100940.47
2023-04-03T12:50:31.258Z,100948.00
2023-04-03T12:53:36.594Z,100936.38
2023-04-03T12:56:39.046Z,100935.28
2023-04-03T12:59:42.408Z,100934.41
2023-04-03T13:02:47.671Z,100932.72
2023-04-03T13:05:49.977Z,100940.25
2023-04-03T13:08:58.284Z,100951.31
2023-04-03T13:12:14.110Z,100953.41
2023-04-03T13:15:24.281Z,100951.72
2023-04-03T13:18:34.176Z,100960.28
2023-04-03T13:21:37.409Z,100962.13
2023-04-03T13:24:41.487Z,100958.78
2023-04-03T13:27:45.873Z,100966.88
2023-04-03T13:31:00.748Z,100966.88
2023-04-03T13:34:19.932Z,100966.88
2023-04-03T13:37:32.828Z,100977.72
2023-04-03T13:40:48.363Z,100980.06
2023-04-03T13:43:53.517Z,100968.84
2023-04-03T13:47:01.092Z,100966.03
2023-04-03T13:50:30.150Z,100968.34
2023-04-03T13:53:35.631Z,100963.44
2023-04-03T13:56:40.646Z,100967.84
2023-04-03T13:59:47.185Z,100966.97
2023-04-03T14:02:49.615Z,100975.66
2023-04-03T14:05:54.587Z,100978.56
2023-04-03T14:08:56.726Z,100976.59
2023-04-03T14:12:20.945Z,100995.25
2023-04-03T14:15:32.326Z,100991.38
2023-04-03T14:18:34.502Z,100993.03
2023-04-03T14:21:36.568Z,100990.09
2023-04-03T14:24:40.331Z,100994.97
2023-04-03T14:27:45.897Z,101003.56
2023-04-03T14:30:51.144Z,101007.78
2023-04-03T14:33:53.469Z,101008.50
2023-04-03T14:36:55.759Z,100999.59
2023-04-03T14:39:59.976Z,100998.78
2023-04-03T14:43:02.091Z,100988.88
2023-04-03T14:46:04.319Z,101004.94
2023-04-03T14:49:35.794Z,101012.66
2023-04-03T14:52:38.725Z,101022.69
2023-04-03T14:55:46.398Z,101017.31
2023-04-03T14:58:51.704Z,101027.59
2023-04-03T15:01:54.273Z,101029.22
2023-04-03T15:04:58.579Z,101045.03
2023-04-03T15:08:01.865Z,101051.66
2023-04-03T15:11:04.105Z,101058.06
2023-04-03T15:14:06.038Z,101067.81
2023-04-03T15:17:16.077Z,101064.88
2023-04-03T15:20:20.466Z,101067.41
2023-04-03T15:23:27.057Z,101067.66
2023-04-03T15:26:29.190Z,101070.88
2023-04-03T15:29:32.439Z,101080.06
2023-04-03T15:32:35.582Z,101093.09
2023-04-03T15:35:38.812Z,101094.75
2023-04-03T15:38:41.378Z,101097.59
2023-04-03T15:41:46.429Z,101108.38
2023-04-03T15:44:48.533Z,101115.81
2023-04-03T15:47:51.360Z,101123.63
2023-04-03T15:50:53.496Z,101137.06
2023-04-03T15:53:55.472Z,101146.25
2023-04-03T15:56:58.330Z,101160.63
2023-04-03T16:00:00.788Z,101140.22
2023-04-03T16:03:07.682Z,101140.53
2023-04-03T16:06:09.931Z,101147.34
2023-04-03T16:09:12.155Z,101138.78
2023-04-03T16:12:14.387Z,101161.38
2023-04-03T16:15:16.513Z,101161.00
2023-04-03T16:18:19.575Z,101168.47
2023-04-03T16:21:23.581Z,101168.91
2023-04-03T16:24:26.485Z,101180.84
2023-04-03T16:27:30.288Z,101186.63
2023-04-03T16:30:32.452Z,101191.78
2023-04-03T16:33:35.684Z,101196.69
2023-04-03T16:36:38.801Z,101186.47
2023-04-03T16:39:42.009Z,101198.09
2023-04-03T16:42:44.605Z,101198.00
2023-04-03T16:45:46.714Z,101195.66
2023-04-03T16:48:48.906Z,101198.66
2023-04-03T16:51:53.641Z,101202.69
2023-04-03T16:54:56.897Z,101199.41
2023-04-03T16:58:00.961Z,101212.41
2023-04-03T17:01:17.937Z,101209.28
2023-04-03T17:04:20.283Z,101220.00
2023-04-03T17:07:25.921Z,101235.06
2023-04-03T17:10:28.352Z,101227.09
2023-04-03T17:18:15.104Z,101234.75
2023-04-03T17:21:20.088Z,101251.69
2023-04-03T17:24:31.648Z,101267.34
2023-04-03T17:27:39.100Z,101263.19
2023-04-03T17:30:42.660Z,101277.88
2023-04-03T17:33:49.107Z,101290.59
2023-04-03T17:37:00.642Z,101283.78
2023-04-03T17:40:04.533Z,101288.78
2023-04-03T17:43:07.292Z,101278.69
2023-04-03T17:46:10.928Z,101286.81
2023-04-03T17:49:16.215Z,101298.00
2023-04-03T17:52:18.353Z,101297.41
2023-04-03T17:55:20.558Z,101302.56
2023-04-03T17:58:22.786Z,101308.31
2023-04-03T18:01:29.329Z,101318.72
2023-04-03T18:04:36.523Z,101320.59
2023-04-03T18:07:41.241Z,101307.66
2023-04-03T18:10:47.777Z,101297.34
2023-04-03T18:13:51.115Z,101307.50
2023-04-03T18:16:53.437Z,101297.97
2023-04-03T18:19:56.959Z,101300.28
2023-04-03T18:22:59.730Z,101302.97
2023-04-03T18:26:03.492Z,101298.59
2023-04-03T18:29:09.007Z,101293.78
2023-04-03T18:32:16.574Z,101297.53
2023-04-03T18:35:18.887Z,101299.22
2023-04-03T18:38:20.971Z,101303.63
2023-04-03T18:41:27.703Z,101313.19
2023-04-03T18:44:33.279Z,101302.94
2023-04-03T18:47:37.079Z,101315.59
2023-04-03T18:50:39.216Z,101308.03
2023-04-03T18:53:42.342Z,101301.63
2023-04-03T18:56:45.347Z,101309.56
2023-04-03T18:59:47.817Z,101320.66
2023-04-03T19:02:50.265Z,101323.53
2023-04-03T19:05:52.448Z,101331.44
2023-04-03T19:08:54.862Z,101328.75
2023-04-03T19:11:56.909Z,101331.53
2023-04-03T19:14:59.137Z,101330.25
2023-04-03T19:18:01.284Z,101329.69
2023-04-03T19:21:04.585Z,101337.94
2023-04-03T19:24:08.592Z,101330.47
2023-04-03T19:27:11.022Z,101326.59
2023-04-03T19:30:14.136Z,101337.84
2023-04-03T19:33:16.246Z,101338.19
2023-04-03T19:36:18.689Z,101331.34
2023-04-03T19:39:21.025Z,101340.53
2023-04-03T19:42:23.456Z,101349.38
2023-04-03T19:45:27.920Z,101349.81
2023-04-03T19:48:30.097Z,101358.41
2023-04-03T19:51:32.307Z,101356.53
2023-04-03T19:54:34.574Z,101352.50
2023-04-03T19:57:36.961Z,101360.78
2023-04-03T20:00:42.729Z,101366.06
2023-04-03T20:03:45.626Z,101362.16
2023-04-03T20:06:47.618Z,101367.81
2023-04-03T20:09:49.739Z,101372.41
2023-04-03T20:12:52.678Z,101379.13
2023-04-03T20:15:54.920Z,101375.19
2023-04-03T20:18:58.129Z,101376.03
2023-04-03T20:22:01.500Z,101366.03
2023-04-03T20:25:08.289Z,101367.41
2023-04-03T20:28:12.488Z,101355.06
2023-04-03T20:31:14.797Z,101350.16
2023-04-03T20:34:18.478Z,101364.22
2023-04-03T20:37:23.173Z,101364.84
2023-04-03T20:40:26.318Z,101363.34
2023-04-03T20:43:28.790Z,101361.53
2023-04-03T20:46:48.975Z,101367.50
2023-04-03T20:49:53.973Z,101368.06
2023-04-03T20:52:57.875Z,101379.31
2023-04-03T20:56:01.484Z,101377.28
2023-04-03T20:59:05.037Z,101372.25
2023-04-03T21:02:07.140Z,101370.97
2023-04-03T21:05:11.611Z,101364.41
2023-04-03T21:08:51.079Z,101368.13
2023-04-03T21:12:31.060Z,101372.63
2023-04-03T21:15:49.260Z,101365.47
2023-04-03T21:19:13.867Z,101363.16
2023-04-03T21:22:16.414Z,101362.31
2023-04-03T21:25:18.574Z,101354.50
2023-04-03T21:28:24.024Z,101356.53
2023-04-03T21:31:57.317Z,101356.00
2023-04-03T21:35:02.086Z,101363.31
2023-04-03T21:38:04.995Z,101353.84
2023-04-03T21:41:07.402Z,101357.44
2023-04-03T21:44:09.693Z,101352.91
2023-04-03T21:47:12.583Z,101358.34
2023-04-03T21:50:15.678Z,101356.13
2023-04-03T21:53:19.372Z,101344.44
2023-04-03T21:56:23.186Z,101347.63
2023-04-03T21:59:25.634Z,101354.53
2023-04-03T22:02:28.190Z,101350.50
2023-04-03T22:05:32.280Z,101353.22
2023-04-03T22:08:35.469Z,101342.91
2023-04-03T22:11:38.267Z,101341.88
2023-04-03T22:14:40.292Z,101343.94
2023-04-03T22:17:42.601Z,101348.38
2023-04-03T22:20:44.689Z,101354.03
2023-04-03T22:23:46.835Z,101360.94
2023-04-03T22:26:49.722Z,101355.31
2023-04-03T22:29:51.891Z,101347.00
2023-04-03T22:32:53.989Z,101346.56
2023-04-03T22:35:56.878Z,101352.47
2023-04-03T22:39:00.285Z,101345.22
2023-04-03T22:42:02.346Z,101333.22
2023-04-03T22:45:04.601Z,101334.72
2023-04-03T22:48:08.049Z,101346.78
2023-04-03T22:51:10.117Z,101336.63
2023-04-03T22:54:12.168Z,101335.91
2023-04-03T22:57:14.255Z,101337.97
2023-04-03T23:00:16.674Z,101344.28
2023-04-03T23:03:19.387Z,101330.22
2023-04-03T23:06:21.373Z,101332.59
2023-04-03T23:09:23.566Z,101328.53
2023-04-03T23:12:26.019Z,101338.72
2023-04-03T23:15:27.970Z,101333.44
2023-04-03T23:18:31.777Z,101336.69
2023-04-03T23:21:34.218Z,101333.84
2023-04-03T23:24:37.707Z,101339.56
2023-04-03T23:27:39.817Z,101332.44
2023-04-03T23:30:43.246Z,101327.88
2023-04-03T23:33:45.317Z,101325.69
2023-04-03T23:36:47.314Z,101326.34
2023-04-03T23:39:49.607Z,101323.78
2023-04-03T23:42:51.710Z,101321.47
2023-04-03T23:45:54.384Z,101329.06
2023-04-03T23:48:56.468Z,101329.09
2023-04-03T23:51:58.561Z,101326.56
2023-04-03T23:55:00.808Z,101327.56
2023-04-03T23:58:02.960Z,101326.03
